Airfield :
LOGIN :

Register | Disclaimer

   EN    FR    IT 

 










Legend :    VFR   Marginal VFR   IFR   Intensive IFR   Very Intensive IFR
Visi :
Ceiling :
>= 8 km
>= 3000ft
5 to 8 km
1000 to 3000 ft
1500m to 5 km
500 to 1000 ft
800 to 1500m
200 to 500 ft
< 800m
< 200 ft
Symbols :   Thunderstorms  Fog  Heavy snow  Heavy precipitations  Wind > 20 kt
SIGMETs :     Misc.  Thunderstorms  Icing  Turbulence  Mountain Waves  Volcanic Ashes







- Airport Elevation : 3360 ft
- IATA code : QSF


DAAS - 8 Mai 45

CURRENT METAR :
  • 251400Z 36005KT 9999 SCT030TCU 26/10 Q1024

EXPIRED METARs :
  • 251300Z 08004KT 9999 SCT030TCU 26/12 Q1025
  • 251200Z 04003KT 9999 SCT030 25/11 Q1025

TAF TAF DAAS
Valid from the 25 at 12:00 until the 26 at 12:00 UTC


251100Z 2512/2612 30008KT 9999 FEW030
TEMPO 2512/2524 FEW026TCU
PROB30
TEMPO 2516/2523 02015G25KT 5000 -TSRA FEW026CB BKN030
No reported NOTAMs for that airfield.
2 SIGMETs reported for the Alger FIR (DAAA) :
 
Embedded thunderstorms
DAAA SIGMET 5 VALID 251430/251730 DAMM
DAAA ALGER FIR EMBD TS FCST WI N3531 E00700 - N3419 E00700 - N3600 E00500 - N3531 E00700 - TOP FL380 MOV E INTSF=
Embedded thunderstorms
DAAA SIGMET 4 VALID 251300/251600 DAMM
DAAA ALGER FIR EMBD TS OBS WI N3300 E00500 - N2700 E00500 - N2700 W00001 - N3300 W00001 - N3300 E00500 - TOP FL400 STNR INTSF=



MET'MAP, your aeronautical weather chart ! - Copyright ORBIFLY December 2007 - Disclaimer

ORBIFLY MET'MAP TEAM :

Programming & Development : Alexandra Zaïnal
Concept & Development : Baudouin d'Aumeries
Co-Development & Prog : Marc-Olivier Méhu
Technical & hardware support : Manuel Goepfert

Contact : metmap@orbifly.com




SOURCES & CREDITS :

   NOAA